Time;durP1;ratioP1;P1;durP2;ratioP2;P2;SDS_P1;SDS_P2;PMS_P1;PMS_P2;Temp;Humidity;BMP_temperature;BMP_pressure;BME280_temperature;BME280_humidity;BME280_pressure;Samples;Min_cycle;Max_cycle;Signal;HPM_P1;HPM_P2
2021/12/31 00:04:51;;;;;;;0.90;0.40;;;;;;;12.44;100.00;98581.78;10508620;28;20921;-63
2021/12/31 00:09:59;;;;;;;0.80;0.30;;;;;;;12.48;100.00;98566.94;10480053;28;20083;-61
2021/12/31 00:15:02;;;;;;;1.25;0.30;;;;;;;12.42;100.00;98567.59;10505359;28;20447;-62
2021/12/31 00:20:13;;;;;;;1.33;0.30;;;;;;;12.42;100.00;98557.66;10498106;28;20536;-61
2021/12/31 00:25:16;;;;;;;0.43;0.20;;;;;;;12.26;100.00;98563.91;10509473;28;20071;-58
2021/12/31 00:30:19;;;;;;;1.25;0.40;;;;;;;12.26;100.00;98558.50;10503258;28;20163;-57
2021/12/31 00:35:24;;;;;;;1.95;0.40;;;;;;;12.21;100.00;98555.44;10507228;28;20136;-57
2021/12/31 00:40:27;;;;;;;0.60;0.40;;;;;;;12.12;100.00;98553.75;10496893;28;20070;-60
2021/12/31 00:45:31;;;;;;;2.83;0.50;;;;;;;12.13;100.00;98558.97;10492862;28;20512;-60
2021/12/31 00:50:37;;;;;;;1.33;0.40;;;;;;;12.16;100.00;98571.31;10495943;28;20055;-63
2021/12/31 00:55:41;;;;;;;0.90;0.50;;;;;;;11.98;100.00;98583.09;10489365;28;20072;-62
2021/12/31 01:00:45;;;;;;;0.85;0.50;;;;;;;12.02;100.00;98579.06;10502186;28;20062;-63
2021/12/31 01:05:56;;;;;;;1.45;0.60;;;;;;;12.00;100.00;98578.38;10492158;28;20040;-64
2021/12/31 01:10:59;;;;;;;1.80;0.60;;;;;;;12.05;100.00;98571.66;10496154;28;20075;-62
2021/12/31 01:16:03;;;;;;;0.93;0.60;;;;;;;12.00;100.00;98569.44;10494058;28;20075;-59
2021/12/31 01:21:08;;;;;;;2.45;0.70;;;;;;;12.10;100.00;98580.09;10494777;28;20040;-63
2021/12/31 01:26:11;;;;;;;1.80;0.60;;;;;;;12.13;100.00;98577.88;10472450;28;20462;-60
2021/12/31 01:31:14;;;;;;;1.05;0.60;;;;;;;12.16;100.00;98580.25;10478411;28;20167;-62
2021/12/31 01:36:19;;;;;;;2.10;0.60;;;;;;;12.12;100.00;98575.38;10495567;28;20083;-63
2021/12/31 01:41:22;;;;;;;1.98;0.70;;;;;;;12.09;100.00;98581.94;10500069;28;20075;-62
2021/12/31 01:46:26;;;;;;;1.33;0.60;;;;;;;12.02;100.00;98570.97;10492155;28;20044;-58
2021/12/31 01:51:33;;;;;;;1.33;0.60;;;;;;;12.04;100.00;98567.25;10501607;28;20074;-54
2021/12/31 01:56:37;;;;;;;1.27;0.60;;;;;;;12.05;100.00;98567.09;10478187;28;20395;-55
2021/12/31 02:01:40;;;;;;;1.33;0.70;;;;;;;12.17;100.00;98570.31;10468145;28;20469;-60
2021/12/31 02:06:45;;;;;;;1.30;0.63;;;;;;;12.09;100.00;98578.38;10480175;28;20048;-61
2021/12/31 02:11:48;;;;;;;1.90;0.60;;;;;;;12.13;100.00;98582.47;10496346;28;20124;-61
2021/12/31 02:16:52;;;;;;;1.85;0.63;;;;;;;12.06;100.00;98581.41;10495832;28;20519;-60
2021/12/31 02:21:57;;;;;;;1.27;0.55;;;;;;;12.10;100.00;98588.19;10504126;28;20097;-61
2021/12/31 02:27:00;;;;;;;0.80;0.50;;;;;;;11.97;100.00;98586.78;10486479;28;20121;-62
2021/12/31 02:32:04;;;;;;;1.10;0.57;;;;;;;11.96;100.00;98586.97;10501102;28;20481;-60
2021/12/31 02:37:08;;;;;;;1.42;0.63;;;;;;;11.91;100.00;98589.28;10490576;28;20039;-60
2021/12/31 02:42:12;;;;;;;2.33;0.55;;;;;;;11.88;100.00;98590.47;10499692;28;20123;-61
2021/12/31 02:47:16;;;;;;;0.90;0.50;;;;;;;11.77;100.00;98596.19;10498250;28;20625;-60
2021/12/31 02:52:20;;;;;;;1.52;0.68;;;;;;;11.74;100.00;98593.81;10488977;28;20581;-60
2021/12/31 02:57:23;;;;;;;2.17;0.60;;;;;;;11.74;100.00;98597.38;10490925;28;20054;-61
2021/12/31 03:02:28;;;;;;;2.38;0.65;;;;;;;11.73;100.00;98590.28;10489321;28;20128;-60
2021/12/31 03:07:35;;;;;;;0.73;0.43;;;;;;;11.72;100.00;98591.28;10492447;28;20032;-58
2021/12/31 03:12:39;;;;;;;0.80;0.50;;;;;;;11.78;100.00;98585.22;10494636;28;20064;-58
2021/12/31 03:17:44;;;;;;;0.95;0.40;;;;;;;11.87;100.00;98595.06;10474373;28;20133;-55
2021/12/31 03:22:48;;;;;;;0.70;0.50;;;;;;;11.90;100.00;98596.56;10496711;28;20041;-58
2021/12/31 03:27:51;;;;;;;2.05;0.50;;;;;;;11.95;100.00;98582.56;10504657;28;20123;-58
2021/12/31 03:32:55;;;;;;;0.95;0.40;;;;;;;12.02;100.00;98579.06;10475269;28;20143;-58
2021/12/31 03:37:59;;;;;;;0.57;0.32;;;;;;;11.98;100.00;98593.06;10480835;28;20112;-52
2021/12/31 03:43:02;;;;;;;1.13;0.40;;;;;;;12.09;100.00;98589.19;10483365;28;20135;-57
2021/12/31 03:48:05;;;;;;;0.43;0.40;;;;;;;12.25;100.00;98593.75;10483182;28;20048;-61
2021/12/31 03:53:10;;;;;;;1.02;0.35;;;;;;;12.17;100.00;98617.06;10483151;28;20071;-56
2021/12/31 03:58:13;;;;;;;0.45;0.30;;;;;;;12.23;100.00;98601.22;10477860;28;20398;-57
2021/12/31 04:03:18;;;;;;;0.77;0.30;;;;;;;12.26;100.00;98612.53;10481744;28;20080;-61
2021/12/31 04:08:22;;;;;;;2.03;0.40;;;;;;;12.24;100.00;98606.44;10483980;28;20139;-56
2021/12/31 04:13:26;;;;;;;0.75;0.30;;;;;;;12.30;100.00;98597.66;10485741;28;20092;-59
2021/12/31 04:18:29;;;;;;;1.23;0.32;;;;;;;12.26;100.00;98603.56;10475376;28;20044;-59
2021/12/31 04:23:37;;;;;;;1.00;0.40;;;;;;;12.36;100.00;98595.28;10483046;28;20127;-60
2021/12/31 04:28:40;;;;;;;0.22;0.20;;;;;;;12.32;100.00;98601.03;10483959;28;20063;-61
2021/12/31 04:33:43;;;;;;;1.42;0.38;;;;;;;12.26;100.00;98596.31;10500785;28;20052;-59
2021/12/31 04:38:47;;;;;;;1.10;0.47;;;;;;;12.28;100.00;98605.09;10499918;28;20108;-59
2021/12/31 04:43:50;;;;;;;1.00;0.40;;;;;;;12.25;100.00;98608.13;10508725;28;20076;-58
2021/12/31 04:48:53;;;;;;;1.92;0.40;;;;;;;12.27;100.00;98613.34;10496864;28;20115;-58
2021/12/31 04:54:02;;;;;;;0.60;0.50;;;;;;;12.29;100.00;98609.47;10493344;28;20493;-62
2021/12/31 04:59:05;;;;;;;0.75;0.47;;;;;;;12.34;100.00;98590.06;10481318;28;20047;-60
2021/12/31 05:04:08;;;;;;;0.38;0.38;;;;;;;12.31;100.00;98580.44;10492103;28;20841;-61
2021/12/31 05:09:12;;;;;;;0.77;0.40;;;;;;;12.41;100.00;98582.09;10491060;28;20043;-60
2021/12/31 05:14:15;;;;;;;2.45;0.52;;;;;;;12.41;100.00;98584.81;10497136;28;20055;-60
2021/12/31 05:19:18;;;;;;;1.25;0.50;;;;;;;12.45;100.00;98580.78;10468256;28;20052;-58
2021/12/31 05:24:24;;;;;;;0.45;0.40;;;;;;;12.42;100.00;98589.22;10492803;28;20055;-60
2021/12/31 05:29:28;;;;;;;1.58;0.40;;;;;;;12.42;100.00;98591.91;10486901;28;20037;-60
2021/12/31 05:34:31;;;;;;;1.25;0.50;;;;;;;12.40;100.00;98585.84;10484808;28;20049;-54
2021/12/31 05:39:35;;;;;;;2.63;0.60;;;;;;;12.38;100.00;98582.47;10481250;28;20055;-58
2021/12/31 05:44:38;;;;;;;1.92;0.50;;;;;;;12.38;100.00;98583.31;10479948;28;20328;-57
2021/12/31 05:49:41;;;;;;;2.17;0.50;;;;;;;12.51;100.00;98580.09;10477495;28;20067;-59
2021/12/31 05:54:46;;;;;;;2.25;0.50;;;;;;;12.45;100.00;98587.03;10480182;28;20406;-54
2021/12/31 05:59:49;;;;;;;1.95;0.57;;;;;;;12.40;100.00;98585.84;10480545;28;20445;-59
2021/12/31 06:04:52;;;;;;;1.80;0.60;;;;;;;12.43;100.00;98577.38;10458051;28;20051;-60
2021/12/31 06:09:56;;;;;;;0.73;0.40;;;;;;;12.40;100.00;98593.97;10461856;28;20051;-57
2021/12/31 06:15:02;;;;;;;1.00;0.45;;;;;;;12.36;100.00;98600.69;10480405;28;20303;-61
2021/12/31 06:20:06;;;;;;;0.98;0.52;;;;;;;12.28;100.00;98594.28;10480963;28;20471;-57
2021/12/31 06:25:12;;;;;;;0.90;0.63;;;;;;;12.22;100.00;98586.84;10484918;28;20051;-58
2021/12/31 06:30:15;;;;;;;3.08;0.57;;;;;;;12.18;100.00;98594.44;10479719;28;20066;-57
2021/12/31 06:35:18;;;;;;;0.93;0.60;;;;;;;12.15;100.00;98610.16;10485427;28;20420;-56
2021/12/31 06:40:23;;;;;;;1.77;0.65;;;;;;;12.13;100.00;98593.25;10490018;28;20040;-61
2021/12/31 06:45:26;;;;;;;1.52;0.60;;;;;;;12.09;100.00;98611.66;10496765;28;20123;-53
2021/12/31 06:50:30;;;;;;;1.73;0.73;;;;;;;12.09;100.00;98611.66;10500378;28;20520;-56
2021/12/31 06:55:34;;;;;;;1.98;0.80;;;;;;;12.09;100.00;98600.00;10502199;28;20468;-59
2021/12/31 07:00:37;;;;;;;2.67;0.70;;;;;;;12.01;100.00;98601.69;10490276;28;20036;-57
2021/12/31 07:05:41;;;;;;;1.20;0.60;;;;;;;11.97;100.00;98592.19;10500154;28;20040;-59
2021/12/31 07:10:46;;;;;;;1.30;0.60;;;;;;;11.93;100.00;98601.66;10493687;28;20050;-59
2021/12/31 07:15:51;;;;;;;0.95;0.70;;;;;;;11.94;100.00;98608.72;10520559;28;20028;-54
2021/12/31 07:20:56;;;;;;;0.70;0.55;;;;;;;11.91;100.00;98613.59;10559291;28;20054;-60
2021/12/31 07:26:01;;;;;;;2.80;0.80;;;;;;;11.89;100.00;98616.47;10559224;28;20051;-52
2021/12/31 07:31:04;;;;;;;1.65;0.60;;;;;;;11.89;100.00;98629.97;10549795;28;20057;-57
2021/12/31 07:36:08;;;;;;;1.95;0.70;;;;;;;11.92;100.00;98629.66;10562330;28;20051;-58
2021/12/31 07:41:12;;;;;;;0.93;0.60;;;;;;;11.89;100.00;98624.56;10561535;28;20122;-60
2021/12/31 07:46:15;;;;;;;1.27;0.60;;;;;;;11.93;100.00;98617.84;10516188;28;20495;-58
2021/12/31 07:51:19;;;;;;;3.25;1.05;;;;;;;11.94;100.00;98619.50;10503652;28;20412;-57
2021/12/31 07:56:24;;;;;;;1.38;0.70;;;;;;;11.93;100.00;98625.94;10506395;28;20058;-58
2021/12/31 08:01:26;;;;;;;2.53;0.80;;;;;;;11.92;100.00;98616.16;10493224;28;20043;-59
2021/12/31 08:06:30;;;;;;;1.77;0.80;;;;;;;11.93;100.00;98612.44;10479069;28;20055;-56
2021/12/31 08:11:35;;;;;;;2.63;0.90;;;;;;;11.96;100.00;98612.09;10488217;28;20066;-56
2021/12/31 08:16:39;;;;;;;2.83;1.00;;;;;;;11.97;100.00;98613.78;10468960;28;20045;-60
2021/12/31 08:21:43;;;;;;;2.08;0.80;;;;;;;11.96;100.00;98614.78;10493345;28;20036;-59
2021/12/31 08:26:48;;;;;;;1.85;0.95;;;;;;;11.95;100.00;98613.09;10492259;28;20037;-58
2021/12/31 08:31:57;;;;;;;1.52;0.65;;;;;;;11.95;100.00;98605.00;10508929;28;20075;-54
2021/12/31 08:37:03;;;;;;;1.67;0.70;;;;;;;11.97;100.00;98607.56;10502218;28;20067;-57
2021/12/31 08:42:19;;;;;;;1.35;0.80;;;;;;;11.98;100.00;98604.72;10491755;28;20497;-60
2021/12/31 08:47:30;;;;;;;1.23;0.77;;;;;;;12.05;100.00;98626.50;10490165;28;20393;-60
2021/12/31 08:52:37;;;;;;;3.67;1.00;;;;;;;12.09;100.00;98608.09;10499173;28;20055;-53
2021/12/31 08:57:45;;;;;;;1.73;0.90;;;;;;;12.11;100.00;98608.78;10485513;28;20072;-57
2021/12/31 09:02:51;;;;;;;1.92;0.93;;;;;;;12.18;100.00;98604.38;10466665;28;20052;-56
2021/12/31 09:08:01;;;;;;;1.88;0.90;;;;;;;12.17;100.00;98595.44;10500283;28;20287;-57
2021/12/31 09:13:11;;;;;;;2.20;0.90;;;;;;;12.20;100.00;98602.38;10492515;28;20136;-58
2021/12/31 09:18:18;;;;;;;2.17;0.80;;;;;;;12.21;100.00;98592.44;10492077;28;20783;-55
2021/12/31 09:23:29;;;;;;;3.47;1.00;;;;;;;12.17;100.00;98598.16;10491491;28;20119;-51
2021/12/31 09:28:37;;;;;;;5.07;1.25;;;;;;;12.12;100.00;98578.06;10494643;28;20063;-54
2021/12/31 09:33:44;;;;;;;;;;;;;;;12.12;100.00;98567.25;10474817;28;20040;-58
2021/12/31 09:38:53;;;;;;;3.53;1.30;;;;;;;12.23;100.00;98577.72;10498590;28;19920;-58
2021/12/31 09:44:01;;;;;;;3.92;1.38;;;;;;;12.33;100.00;98573.00;10500088;28;20039;-56
2021/12/31 09:49:12;;;;;;;2.20;1.08;;;;;;;12.43;100.00;98575.53;10481226;28;20479;-53
2021/12/31 09:54:22;;;;;;;2.45;1.08;;;;;;;12.55;100.00;98581.44;10503877;28;20052;-54
2021/12/31 09:59:29;;;;;;;3.10;1.50;;;;;;;12.63;100.00;98562.53;10479105;28;20143;-57
2021/12/31 10:04:55;;;;;;;3.42;1.20;;;;;;;12.70;100.00;98559.13;10494912;28;20131;-55
2021/12/31 10:10:11;;;;;;;2.05;1.08;;;;;;;12.80;100.00;98559.78;10474868;28;20047;-54
2021/12/31 10:15:24;;;;;;;2.72;1.10;;;;;;;12.87;100.00;98566.19;10472720;28;20171;-59
2021/12/31 10:20:50;;;;;;;;;;;;;;;12.89;100.00;98568.72;10465333;28;20094;-54
2021/12/31 10:26:21;;;;;;;3.83;1.10;;;;;;;12.92;100.00;98569.22;10472105;28;19978;-53
2021/12/31 10:31:31;;;;;;;2.63;1.20;;;;;;;13.03;100.00;98577.97;10486240;28;20042;-60
2021/12/31 10:36:41;;;;;;;2.97;1.17;;;;;;;13.08;100.00;98572.91;10503901;28;20036;-54
2021/12/31 10:42:04;;;;;;;3.17;1.15;;;;;;;13.08;100.00;98552.09;10493292;28;20450;-60
2021/12/31 10:47:30;;;;;;;3.10;1.00;;;;;;;13.15;100.00;98557.66;10489533;28;20463;-61
2021/12/31 10:52:45;;;;;;;2.67;1.00;;;;;;;13.23;100.00;98554.06;10489646;28;20067;-63
2021/12/31 10:57:53;;;;;;;3.30;1.15;;;;;;;13.28;100.00;98540.03;10498224;28;20056;-60
2021/12/31 11:03:07;;;;;;;3.08;1.35;;;;;;;13.32;100.00;98533.25;10469683;28;20082;-58
2021/12/31 11:08:15;;;;;;;3.85;1.30;;;;;;;13.36;100.00;98521.03;10499540;28;20497;-60
2021/12/31 11:13:30;;;;;;;3.00;1.00;;;;;;;13.27;100.00;98533.78;10475924;28;20040;-64
2021/12/31 11:18:41;;;;;;;1.88;0.93;;;;;;;13.24;100.00;98534.94;10479851;28;20389;-60
2021/12/31 11:23:48;;;;;;;2.10;1.05;;;;;;;13.15;100.00;98537.88;10496793;28;20086;-62
2021/12/31 11:28:55;;;;;;;1.60;0.82;;;;;;;13.06;100.00;98523.53;10505318;28;20124;-57
2021/12/31 11:34:16;;;;;;;2.70;1.00;;;;;;;12.93;100.00;98524.09;10504235;28;20710;-62
2021/12/31 11:39:24;;;;;;;2.10;1.00;;;;;;;12.93;100.00;98500.59;10507644;28;20047;-62
2021/12/31 11:44:28;;;;;;;1.90;1.10;;;;;;;12.86;100.00;98510.44;10502076;28;20124;-56
2021/12/31 11:49:34;;;;;;;2.72;0.98;;;;;;;12.77;100.00;98511.44;10477298;28;20048;-61
2021/12/31 11:54:38;;;;;;;2.75;1.00;;;;;;;12.70;100.00;98500.47;10498563;28;20075;-57
2021/12/31 11:59:52;;;;;;;2.65;1.00;;;;;;;12.57;100.00;98511.03;10504262;28;20591;-59
2021/12/31 12:05:14;;;;;;;3.10;0.90;;;;;;;12.49;100.00;98501.06;10479868;28;20052;-56
2021/12/31 12:10:20;;;;;;;2.45;0.90;;;;;;;12.49;100.00;98493.78;10483224;28;20041;-60
2021/12/31 12:15:34;;;;;;;1.42;0.80;;;;;;;12.51;100.00;98490.94;10487167;28;20040;-60
2021/12/31 12:20:42;;;;;;;1.98;0.90;;;;;;;12.55;100.00;98481.44;10481950;28;20420;-58
2021/12/31 12:25:45;;;;;;;1.50;0.90;;;;;;;12.59;100.00;98469.28;10483547;28;20151;-59
2021/12/31 12:31:03;;;;;;;1.45;0.95;;;;;;;12.60;100.00;98462.88;10483523;28;20043;-61
2021/12/31 12:36:08;;;;;;;2.83;1.08;;;;;;;12.66;100.00;98450.50;10484769;28;20052;-58
2021/12/31 12:41:12;;;;;;;1.27;0.88;;;;;;;12.69;100.00;98435.81;10479826;28;20333;-60
2021/12/31 12:46:21;;;;;;;3.15;1.10;;;;;;;12.75;100.00;98435.13;10484578;28;20383;-57
2021/12/31 12:51:31;;;;;;;1.60;0.82;;;;;;;12.70;100.00;98432.91;10481597;28;20131;-59
2021/12/31 12:56:34;;;;;;;1.00;0.90;;;;;;;12.73;100.00;98423.63;10480057;28;20059;-57
2021/12/31 13:01:40;;;;;;;3.35;1.17;;;;;;;12.73;100.00;98423.63;10478291;28;20029;-60
2021/12/31 13:06:54;;;;;;;2.20;1.00;;;;;;;12.73;100.00;98424.47;10484685;28;20052;-58
2021/12/31 13:12:00;;;;;;;1.83;0.90;;;;;;;12.74;100.00;98419.91;10462586;28;20476;-61
2021/12/31 13:17:03;;;;;;;4.20;0.80;;;;;;;12.70;100.00;98422.09;10483686;28;20393;-59
2021/12/31 13:22:10;;;;;;;2.33;0.85;;;;;;;12.67;100.00;98414.34;10479526;28;20041;-59
2021/12/31 13:27:16;;;;;;;2.72;1.10;;;;;;;12.59;100.00;98422.47;10483936;28;20047;-62
2021/12/31 13:32:21;;;;;;;2.25;1.00;;;;;;;12.55;100.00;98432.81;10478986;28;20064;-60
2021/12/31 13:37:28;;;;;;;2.17;0.90;;;;;;;12.55;100.00;98427.41;10481215;28;20047;-60
2021/12/31 13:42:31;;;;;;;2.63;0.90;;;;;;;12.50;100.00;98427.09;10480009;28;20043;-60
2021/12/31 13:47:34;;;;;;;2.50;0.98;;;;;;;12.55;100.00;98432.81;10480274;28;20513;-57
2021/12/31 13:52:46;;;;;;;1.75;0.80;;;;;;;12.51;100.00;98442.28;10477912;28;20035;-59
2021/12/31 13:57:57;;;;;;;2.15;0.85;;;;;;;12.53;100.00;98440.22;10480393;28;20538;-59
2021/12/31 14:03:17;;;;;;;2.55;1.00;;;;;;;12.46;100.00;98440.09;10479221;28;20133;-60
2021/12/31 14:08:41;;;;;;;1.65;0.90;;;;;;;12.41;100.00;98425.41;10459875;28;20049;-59
2021/12/31 14:13:46;;;;;;;3.22;1.00;;;;;;;12.30;100.00;98451.78;10461324;28;20053;-63
2021/12/31 14:18:49;;;;;;;1.23;0.90;;;;;;;12.25;100.00;98458.69;10489980;28;20054;-59
2021/12/31 14:23:54;;;;;;;1.83;0.80;;;;;;;12.22;100.00;98438.28;10478979;28;20040;-60
2021/12/31 14:35:53;;;;;;;2.47;0.90;;;;;;;12.24;100.00;98432.69;10477148;28;20036;-58
2021/12/31 14:41:03;;;;;;;1.40;0.98;;;;;;;12.14;100.00;98441.84;10476091;28;20045;-59
2021/12/31 14:46:06;;;;;;;2.20;1.10;;;;;;;12.19;100.00;98433.22;10456710;28;20056;-58
2021/12/31 14:51:09;;;;;;;5.20;1.00;;;;;;;12.24;100.00;98430.00;10460013;28;20404;-56
2021/12/31 14:56:14;;;;;;;3.88;1.08;;;;;;;12.21;100.00;98446.56;10459422;28;20052;-57
2021/12/31 15:01:17;;;;;;;1.67;0.88;;;;;;;12.17;100.00;98451.47;10482846;28;20068;-62
2021/12/31 15:06:20;;;;;;;1.88;1.00;;;;;;;12.08;100.00;98472.25;10486511;28;20048;-54
2021/12/31 15:11:25;;;;;;;1.95;1.00;;;;;;;11.98;100.00;98448.09;10483188;28;20037;-53
2021/12/31 15:16:28;;;;;;;2.83;1.10;;;;;;;11.96;100.00;98442.00;10480144;28;20049;-61
2021/12/31 15:21:31;;;;;;;1.75;1.00;;;;;;;11.95;100.00;98434.91;10483896;28;20154;-56
2021/12/31 15:26:40;;;;;;;3.78;0.98;;;;;;;11.93;100.00;98434.25;10488159;28;20106;-58
2021/12/31 15:31:44;;;;;;;2.20;1.20;;;;;;;11.93;100.00;98445.06;10481980;28;20039;-54
2021/12/31 15:36:48;;;;;;;1.75;1.00;;;;;;;11.88;100.00;98437.44;10485483;28;20341;-62
2021/12/31 15:41:52;;;;;;;2.13;1.10;;;;;;;11.78;100.00;98425.16;10482326;28;20036;-54
2021/12/31 15:46:56;;;;;;;3.53;1.10;;;;;;;11.70;100.00;98439.47;10484612;28;20400;-56
2021/12/31 15:51:59;;;;;;;4.68;1.25;;;;;;;11.68;100.00;98444.19;10485315;28;20102;-64
2021/12/31 15:57:04;;;;;;;3.45;1.30;;;;;;;11.59;100.00;98447.91;10485748;28;20036;-55
2021/12/31 16:02:07;;;;;;;1.50;1.08;;;;;;;11.48;100.00;98436.44;10483976;28;20460;-56
2021/12/31 16:07:10;;;;;;;1.33;1.17;;;;;;;11.56;100.00;98438.28;10467170;28;20159;-57
2021/12/31 16:12:15;;;;;;;2.67;1.30;;;;;;;11.62;100.00;98448.41;10483494;28;20046;-55
2021/12/31 16:17:39;;;;;;;3.08;1.48;;;;;;;11.60;100.00;98445.03;10486362;28;20044;-65
2021/12/31 16:22:44;;;;;;;2.05;1.35;;;;;;;11.63;100.00;98451.97;10479733;28;20438;-55
2021/12/31 16:27:50;;;;;;;2.45;1.30;;;;;;;11.67;100.00;98456.84;10481781;28;20413;-57
2021/12/31 16:32:53;;;;;;;2.20;1.33;;;;;;;11.62;100.00;98475.38;10482280;28;20489;-60
2021/12/31 16:37:56;;;;;;;3.42;1.17;;;;;;;11.57;100.00;98475.06;10481253;28;20048;-61
2021/12/31 16:43:01;;;;;;;2.10;1.30;;;;;;;11.49;100.00;98488.50;10478154;28;20040;-60
2021/12/31 16:48:05;;;;;;;2.70;1.27;;;;;;;11.43;100.00;98491.88;10482383;28;20118;-58
2021/12/31 16:53:08;;;;;;;2.17;1.27;;;;;;;11.35;100.00;98490.84;10478071;28;20948;-59
2021/12/31 16:58:12;;;;;;;3.03;1.30;;;;;;;11.35;100.00;98490.00;10482845;28;20531;-63
2021/12/31 17:03:15;;;;;;;2.65;1.40;;;;;;;11.34;100.00;98493.72;10482236;28;20122;-59
2021/12/31 17:08:19;;;;;;;2.15;1.40;;;;;;;11.39;100.00;98467.94;10485326;28;20063;-61
2021/12/31 17:13:23;;;;;;;2.95;1.40;;;;;;;11.47;100.00;98469.81;10479946;28;20044;-60
2021/12/31 17:18:26;;;;;;;2.58;1.77;;;;;;;11.48;100.00;98471.50;10481256;28;20059;-63
2021/12/31 17:23:29;;;;;;;3.90;1.80;;;;;;;11.55;100.00;98474.38;10482057;28;20040;-63
2021/12/31 17:28:34;;;;;;;3.90;1.88;;;;;;;11.55;100.00;98490.56;10464633;28;20566;-63
2021/12/31 17:33:37;;;;;;;3.67;1.70;;;;;;;11.48;100.00;98476.03;10460904;28;20127;-56
2021/12/31 17:38:40;;;;;;;3.50;1.70;;;;;;;11.43;100.00;98491.88;10461723;28;20055;-61
2021/12/31 17:43:44;;;;;;;3.50;1.85;;;;;;;11.33;100.00;98495.59;10481474;28;20044;-63
2021/12/31 17:48:48;;;;;;;3.10;1.77;;;;;;;11.30;100.00;98498.59;10464780;28;20048;-62
2021/12/31 17:53:52;;;;;;;2.20;1.63;;;;;;;11.30;100.00;98504.00;10479618;28;20037;-61
2021/12/31 17:58:56;;;;;;;2.33;1.25;;;;;;;11.45;100.00;98501.50;10480550;28;20127;-58
2021/12/31 18:03:59;;;;;;;3.03;1.65;;;;;;;11.55;100.00;98517.56;10463969;28;20044;-56
2021/12/31 18:09:03;;;;;;;2.17;1.40;;;;;;;11.51;100.00;98526.97;10480561;28;20054;-63
2021/12/31 18:14:08;;;;;;;2.67;1.65;;;;;;;11.51;100.00;98533.22;10477707;28;20036;-56
2021/12/31 18:19:11;;;;;;;3.25;2.00;;;;;;;11.45;100.00;98539.28;10477817;28;20125;-60
2021/12/31 18:24:14;;;;;;;2.17;1.67;;;;;;;11.36;100.00;98537.56;10476123;28;20123;-58
2021/12/31 18:29:19;;;;;;;2.13;1.50;;;;;;;11.56;100.00;98562.41;10480292;28;20432;-59
2021/12/31 18:34:24;;;;;;;3.13;1.60;;;;;;;11.69;100.00;98567.31;10479180;28;20285;-58
2021/12/31 18:39:28;;;;;;;2.95;1.50;;;;;;;11.91;100.00;98560.47;10480546;28;20048;-60
2021/12/31 18:44:32;;;;;;;3.83;1.50;;;;;;;11.95;100.00;98567.19;10477477;28;20040;-60
2021/12/31 18:49:37;;;;;;;1.60;1.25;;;;;;;12.01;100.00;98576.53;10476620;28;20425;-62
2021/12/31 18:54:40;;;;;;;3.92;1.60;;;;;;;12.22;100.00;98577.91;10481061;28;20040;-61
2021/12/31 18:59:44;;;;;;;4.05;1.33;;;;;;;12.09;100.00;98567.59;10479136;28;20054;-60
2021/12/31 19:04:47;;;;;;;2.97;1.50;;;;;;;12.14;100.00;98573.34;10481520;28;20051;-61
2021/12/31 19:09:51;;;;;;;1.50;1.20;;;;;;;12.14;100.00;98579.56;10478224;28;20052;-62
2021/12/31 19:14:55;;;;;;;3.63;1.60;;;;;;;12.12;100.00;98595.09;10466927;28;20136;-61
2021/12/31 19:19:58;;;;;;;3.38;1.60;;;;;;;11.96;100.00;98606.69;10482449;28;20127;-65
2021/12/31 19:25:01;;;;;;;2.05;1.50;;;;;;;11.88;100.00;98614.78;10481793;28;20033;-59
2021/12/31 19:30:07;;;;;;;2.80;1.45;;;;;;;12.10;100.00;98628.69;10482444;28;20527;-62
2021/12/31 19:35:10;;;;;;;2.60;1.60;;;;;;;11.98;100.00;98631.72;10491609;28;20048;-62
2021/12/31 19:40:14;;;;;;;3.83;1.50;;;;;;;12.04;100.00;98638.31;10484423;28;20082;-59
2021/12/31 19:45:18;;;;;;;5.82;1.45;;;;;;;12.02;100.00;98643.03;10482383;28;20036;-58
2021/12/31 19:50:22;;;;;;;3.50;1.70;;;;;;;11.97;100.00;98645.34;10465734;28;20048;-61
2021/12/31 19:55:25;;;;;;;3.63;1.70;;;;;;;12.05;100.00;98649.97;10489361;28;20060;-60
2021/12/31 20:00:32;;;;;;;3.08;1.50;;;;;;;12.18;100.00;98642.19;10498013;28;20505;-58
2021/12/31 20:05:35;;;;;;;3.97;1.67;;;;;;;12.29;100.00;98632.94;10481847;28;20045;-62
2021/12/31 20:10:39;;;;;;;2.97;1.45;;;;;;;12.35;100.00;98653.03;10470624;28;20047;-60
2021/12/31 20:15:44;;;;;;;5.60;1.70;;;;;;;12.33;100.00;98667.56;10488187;28;20041;-61
2021/12/31 20:20:47;;;;;;;3.38;1.88;;;;;;;12.18;100.00;98666.50;10492332;28;20044;-56
2021/12/31 20:25:50;;;;;;;3.85;1.80;;;;;;;12.17;100.00;98660.28;10484701;28;20062;-59
2021/12/31 20:30:55;;;;;;;4.22;1.85;;;;;;;12.24;100.00;98673.97;10479862;28;20127;-56
2021/12/31 20:35:58;;;;;;;5.78;2.28;;;;;;;12.26;100.00;98671.94;10486798;28;20053;-61
2021/12/31 20:41:01;;;;;;;6.00;2.30;;;;;;;12.24;100.00;98660.47;10482495;28;20053;-62
2021/12/31 20:46:05;;;;;;;4.32;2.10;;;;;;;12.29;100.00;98659.97;10465255;28;20044;-62
2021/12/31 20:51:09;;;;;;;3.85;2.08;;;;;;;12.27;100.00;98668.25;10485277;28;20110;-63
2021/12/31 20:56:13;;;;;;;3.60;2.20;;;;;;;12.20;100.00;98678.00;10489906;28;20048;-64
2021/12/31 21:01:17;;;;;;;3.83;1.60;;;;;;;12.25;100.00;98686.47;10484676;28;20051;-60
2021/12/31 21:06:21;;;;;;;7.10;2.58;;;;;;;12.30;100.00;98697.59;10481023;28;20048;-65
2021/12/31 21:11:23;;;;;;;3.97;1.95;;;;;;;12.30;100.00;98718.38;10463574;28;20421;-63
2021/12/31 21:16:28;;;;;;;4.50;2.30;;;;;;;12.26;100.00;98715.19;10490232;28;20497;-62
2021/12/31 21:21:31;;;;;;;4.07;2.00;;;;;;;12.15;100.00;98713.63;10493009;28;20458;-62
2021/12/31 21:26:34;;;;;;;3.50;2.13;;;;;;;12.14;100.00;98728.13;10484848;28;20046;-62
2021/12/31 21:31:39;;;;;;;4.00;2.30;;;;;;;12.06;100.00;98743.44;10480756;28;20799;-61
2021/12/31 21:36:42;;;;;;;4.60;2.35;;;;;;;12.06;100.00;98746.16;10490542;28;20110;-61
2021/12/31 21:41:45;;;;;;;5.63;2.10;;;;;;;12.10;100.00;98756.50;10494604;28;20123;-61
2021/12/31 21:46:49;;;;;;;3.63;2.10;;;;;;;12.11;100.00;98765.41;10497961;28;20040;-61
2021/12/31 21:51:57;;;;;;;4.25;2.10;;;;;;;12.12;100.00;98767.13;10485577;28;20432;-63
2021/12/31 21:57:02;;;;;;;3.42;2.15;;;;;;;12.14;100.00;98779.44;10484037;28;20052;-62
2021/12/31 22:02:08;;;;;;;3.20;1.90;;;;;;;12.12;100.00;98783.31;10487115;28;20046;-63
2021/12/31 22:07:11;;;;;;;4.40;1.80;;;;;;;12.22;100.00;98781.34;10489582;28;20513;-62
2021/12/31 22:12:15;;;;;;;2.85;1.80;;;;;;;12.16;100.00;98800.91;10482384;28;20040;-63
2021/12/31 22:17:20;;;;;;;3.55;2.13;;;;;;;12.09;100.00;98798.00;10489253;28;20066;-60
2021/12/31 22:22:23;;;;;;;5.13;2.10;;;;;;;12.12;100.00;98805.75;10467535;28;20072;-53
2021/12/31 22:27:26;;;;;;;4.20;2.10;;;;;;;12.04;100.00;98805.72;10490161;28;20417;-59
2021/12/31 22:32:31;;;;;;;3.50;2.30;;;;;;;12.00;100.00;98809.75;10480972;28;20122;-67
2021/12/31 22:37:34;;;;;;;4.30;2.20;;;;;;;11.97;100.00;98808.19;10489178;28;20045;-58
2021/12/31 22:42:38;;;;;;;3.67;2.30;;;;;;;12.05;100.00;98812.00;10478153;28;20131;-64
2021/12/31 22:47:43;;;;;;;5.07;2.40;;;;;;;12.02;100.00;98816.72;10486946;28;20044;-58
2021/12/31 22:52:46;;;;;;;3.40;2.47;;;;;;;12.03;100.00;98817.53;10488572;28;20052;-62
2021/12/31 22:57:49;;;;;;;3.97;2.40;;;;;;;12.05;100.00;98830.91;10469417;28;20048;-63
2021/12/31 23:02:53;;;;;;;3.40;2.10;;;;;;;11.99;100.00;98817.03;10488138;28;20040;-63
2021/12/31 23:07:56;;;;;;;3.17;2.20;;;;;;;12.01;100.00;98823.13;10459508;28;20102;-61
2021/12/31 23:12:59;;;;;;;4.97;2.20;;;;;;;11.93;100.00;98839.25;10459933;28;20519;-61
2021/12/31 23:18:05;;;;;;;7.18;2.58;;;;;;;11.90;100.00;98836.84;10478448;28;20071;-61
2021/12/31 23:23:08;;;;;;;4.85;3.20;;;;;;;11.99;100.00;98854.81;10485080;28;20040;-61
2021/12/31 23:28:12;;;;;;;6.68;3.90;;;;;;;11.94;100.00;98849.00;10476311;28;20369;-59
2021/12/31 23:33:16;;;;;;;7.28;5.32;;;;;;;11.91;100.00;98852.06;10484944;28;20128;-55